Time;durP1;ratioP1;P1;durP2;ratioP2;P2;SDS_P1;SDS_P2;PMS_P1;PMS_P2;Temp;Humidity;BMP_temperature;BMP_pressure;BME280_temperature;BME280_humidity;BME280_pressure;Samples;Min_cycle;Max_cycle;Signal;HPM_P1;HPM_P2
2021/11/08 00:01:09;;;;;;;5.10;2.67;;;;;;;8.32;69.59;99663.69;4994145;28;20048;-65
2021/11/08 00:03:45;;;;;;;4.80;2.88;;;;;;;8.36;69.14;99659.47;4993591;28;20089;-65
2021/11/08 00:06:18;;;;;;;4.32;2.22;;;;;;;8.32;69.55;99668.78;4993818;28;20050;-65
2021/11/08 00:08:51;;;;;;;5.82;2.60;;;;;;;8.25;70.09;99656.84;4994173;28;20057;-65
2021/11/08 00:11:21;;;;;;;5.78;2.50;;;;;;;8.24;69.35;99669.50;4994523;28;20439;-65
2021/11/08 00:13:50;;;;;;;6.13;2.97;;;;;;;8.27;69.49;99659.41;4993856;28;20042;-65
2021/11/08 00:16:29;;;;;;;6.18;3.10;;;;;;;8.35;69.94;99662.88;4994406;28;20133;-66
2021/11/08 00:19:13;;;;;;;5.22;2.90;;;;;;;8.37;70.04;99656.09;4994002;28;20120;-65
2021/11/08 00:21:46;;;;;;;4.57;2.53;;;;;;;8.42;70.31;99660.34;4993669;28;20058;-65
2021/11/08 00:24:24;;;;;;;4.80;3.03;;;;;;;8.41;69.72;99642.56;4993729;28;20085;-65
2021/11/08 00:26:54;;;;;;;4.38;2.40;;;;;;;8.40;69.55;99635.75;4994003;28;20069;-63
2021/11/08 00:29:30;;;;;;;4.75;2.45;;;;;;;8.48;69.86;99635.00;4993967;28;20070;-64
2021/11/08 00:32:03;;;;;;;5.53;2.75;;;;;;;8.57;69.31;99654.53;4993890;28;20050;-65
2021/11/08 00:34:33;;;;;;;5.28;2.67;;;;;;;8.52;69.86;99651.09;4993800;28;20049;-64
2021/11/08 00:37:02;;;;;;;6.18;3.00;;;;;;;8.62;69.50;99652.88;4994253;28;20043;-66
2021/11/08 00:39:36;;;;;;;4.80;2.53;;;;;;;8.68;69.42;99642.75;4994519;28;20046;-65
2021/11/08 00:42:09;;;;;;;6.13;2.83;;;;;;;8.75;69.40;99649.56;4993794;28;20046;-65
2021/11/08 00:44:44;;;;;;;5.82;2.78;;;;;;;8.74;69.47;99680.94;4993847;28;20077;-65
2021/11/08 00:47:15;;;;;;;4.07;2.10;;;;;;;8.70;68.90;99669.06;4993856;28;20141;-64
2021/11/08 00:49:45;;;;;;;4.93;2.50;;;;;;;8.69;68.52;99665.66;4994307;28;20058;-65
2021/11/08 00:52:14;;;;;;;6.55;2.65;;;;;;;8.72;68.89;99680.09;4994048;28;20051;-65
2021/11/08 00:54:47;;;;;;;6.22;2.92;;;;;;;8.59;68.83;99684.22;4993681;28;20089;-65
2021/11/08 00:57:22;;;;;;;4.97;2.47;;;;;;;8.64;69.59;99684.25;4993978;28;20058;-64
2021/11/08 00:59:57;;;;;;;4.40;2.10;;;;;;;8.68;68.77;99688.53;4994354;28;20042;-65
2021/11/08 01:02:30;;;;;;;4.57;2.50;;;;;;;8.74;68.57;99680.94;4993586;28;20042;-63
2021/11/08 01:05:00;;;;;;;4.53;2.28;;;;;;;8.79;68.21;99686.91;4976596;28;20488;-65
2021/11/08 01:07:35;;;;;;;4.75;2.50;;;;;;;8.74;68.21;99691.13;4994245;28;20078;-65
2021/11/08 01:10:08;;;;;;;4.10;2.33;;;;;;;8.84;67.84;99690.34;4993641;28;20141;-66
2021/11/08 01:12:37;;;;;;;4.20;2.30;;;;;;;8.78;68.68;99680.13;4993639;28;20073;-63
2021/11/08 01:15:11;;;;;;;5.20;2.50;;;;;;;8.84;68.28;99679.31;4995284;28;20043;-63
2021/11/08 01:17:45;;;;;;;6.32;2.40;;;;;;;8.80;68.87;99691.19;4996966;28;20081;-64
2021/11/08 01:20:15;;;;;;;4.63;2.45;;;;;;;8.75;69.22;99692.84;4997393;28;20125;-64
2021/11/08 01:22:51;;;;;;;5.00;2.67;;;;;;;8.69;69.66;99687.69;4997313;28;20436;-66
2021/11/08 01:25:20;;;;;;;5.97;2.60;;;;;;;8.64;69.49;99677.47;4996864;28;20046;-65
2021/11/08 01:27:54;;;;;;;4.85;2.78;;;;;;;8.56;69.86;99678.28;4979950;28;20431;-66
2021/11/08 01:30:28;;;;;;;5.90;2.67;;;;;;;8.48;70.57;99673.13;4996838;28;20042;-65
2021/11/08 01:33:02;;;;;;;5.65;2.65;;;;;;;8.35;71.16;99673.03;4996823;28;20494;-66
2021/11/08 01:35:39;;;;;;;4.47;2.40;;;;;;;8.35;71.12;99683.22;4996706;28;20066;-63
2021/11/08 01:38:11;;;;;;;5.07;2.33;;;;;;;8.38;71.76;99683.22;4997247;28;20404;-65
2021/11/08 01:40:44;;;;;;;6.13;3.05;;;;;;;8.33;71.79;99674.69;4996546;28;20469;-66
2021/11/08 01:43:14;;;;;;;4.93;2.40;;;;;;;8.27;71.64;99664.50;4996678;28;20146;-66
2021/11/08 01:45:49;;;;;;;4.50;2.40;;;;;;;8.30;71.19;99672.16;4996502;28;20065;-64
2021/11/08 01:48:21;;;;;;;4.65;2.53;;;;;;;8.29;71.18;99681.47;4996565;28;20050;-64
2021/11/08 01:50:51;;;;;;;4.68;2.38;;;;;;;8.30;71.32;99679.78;4996541;28;20046;-64
2021/11/08 01:53:23;;;;;;;5.15;2.53;;;;;;;8.22;70.92;99676.28;4996464;28;20062;-63
2021/11/08 01:55:56;;;;;;;6.22;2.80;;;;;;;8.20;71.28;99683.03;4996286;28;20535;-66
2021/11/08 01:58:28;;;;;;;4.70;2.42;;;;;;;8.20;70.54;99677.97;4996385;28;20054;-65
2021/11/08 02:01:01;;;;;;;6.03;2.63;;;;;;;8.17;71.63;99665.22;4978965;28;20070;-65
2021/11/08 02:03:34;;;;;;;6.25;2.80;;;;;;;8.10;71.71;99685.50;4996306;28;20093;-65
2021/11/08 02:06:03;;;;;;;4.70;2.40;;;;;;;7.97;70.93;99700.59;4996190;28;20053;-65
2021/11/08 02:08:33;;;;;;;6.20;3.17;;;;;;;7.71;71.85;99709.66;4996191;28;20074;-65
2021/11/08 02:11:02;;;;;;;6.57;3.00;;;;;;;7.69;71.84;99713.88;4996419;28;20423;-65
2021/11/08 02:13:32;;;;;;;5.60;2.30;;;;;;;7.75;72.89;99701.25;4996311;28;20117;-64
2021/11/08 02:16:07;;;;;;;4.50;2.22;;;;;;;7.84;72.80;99714.91;4996549;28;20495;-65
2021/11/08 02:18:40;;;;;;;4.38;2.53;;;;;;;7.88;73.09;99711.53;4995930;28;20113;-65
2021/11/08 02:21:12;;;;;;;5.80;3.00;;;;;;;7.94;73.17;99715.84;4996157;28;20137;-65
2021/11/08 02:23:45;;;;;;;6.32;2.75;;;;;;;7.97;72.90;99693.84;4995911;28;20042;-65
2021/11/08 02:26:17;;;;;;;4.10;2.40;;;;;;;8.13;72.39;99703.31;4978449;28;20046;-64
2021/11/08 02:28:53;;;;;;;5.63;2.80;;;;;;;8.06;72.71;99711.72;4995806;28;20050;-62
2021/11/08 02:31:27;;;;;;;5.97;2.63;;;;;;;7.96;72.49;99704.88;4995783;28;20089;-65
2021/11/08 02:33:57;;;;;;;5.88;3.38;;;;;;;7.98;72.61;99715.88;4995738;28;20047;-64
2021/11/08 02:36:29;;;;;;;6.03;2.97;;;;;;;7.89;72.71;99708.16;4995886;28;20122;-64
2021/11/08 02:39:03;;;;;;;6.53;3.20;;;;;;;7.96;72.83;99709.94;4996256;28;20459;-65
2021/11/08 02:41:36;;;;;;;5.80;3.13;;;;;;;7.95;72.20;99707.38;4995515;28;20043;-65
2021/11/08 02:44:08;;;;;;;5.00;3.00;;;;;;;8.02;72.76;99715.06;4996133;28;20395;-64
2021/11/08 02:46:42;;;;;;;6.53;3.08;;;;;;;8.04;72.73;99707.44;4995424;28;20053;-63
2021/11/08 02:49:15;;;;;;;5.60;2.78;;;;;;;8.07;72.50;99723.59;4995753;28;20052;-65
2021/11/08 02:51:58;;;;;;;7.72;3.05;;;;;;;8.04;72.93;99718.47;4995417;28;20046;-65
2021/11/08 02:54:31;;;;;;;6.88;3.35;;;;;;;7.86;72.92;99713.22;4995618;28;20054;-66
2021/11/08 02:57:01;;;;;;;6.50;3.05;;;;;;;7.70;72.94;99711.31;4995496;28;20460;-65
2021/11/08 02:59:35;;;;;;;6.05;2.85;;;;;;;7.66;73.41;99722.31;4995209;28;20050;-65
2021/11/08 03:02:08;;;;;;;4.95;2.65;;;;;;;7.69;73.35;99714.72;4995434;28;20125;-66
2021/11/08 03:04:41;;;;;;;5.95;3.03;;;;;;;7.63;73.60;99722.25;4995136;28;20129;-65
2021/11/08 03:07:12;;;;;;;5.95;3.15;;;;;;;7.71;74.19;99717.25;4995032;28;20129;-66
2021/11/08 03:09:45;;;;;;;5.50;2.88;;;;;;;7.72;73.89;99722.38;4995038;28;20081;-65
2021/11/08 03:12:21;;;;;;;6.13;3.20;;;;;;;7.80;73.21;99725.84;4995037;28;20039;-65
2021/11/08 03:15:00;;;;;;;5.57;2.70;;;;;;;7.84;73.96;99725.06;4994970;28;20051;-63
2021/11/08 03:17:34;;;;;;;9.23;3.55;;;;;;;7.70;73.53;99726.56;4994679;28;20134;-63
2021/11/08 03:20:04;;;;;;;6.45;3.17;;;;;;;7.47;73.51;99725.47;4995110;28;20563;-64
2021/11/08 03:22:35;;;;;;;5.70;3.03;;;;;;;7.30;74.17;99730.31;4994774;28;20050;-63
2021/11/08 03:25:12;;;;;;;6.70;3.28;;;;;;;7.29;74.29;99728.59;4977507;28;20133;-63
2021/11/08 03:27:50;;;;;;;5.35;3.00;;;;;;;7.41;74.73;99730.47;4994676;28;20137;-66
2021/11/08 03:30:26;;;;;;;5.80;3.08;;;;;;;7.46;74.57;99731.38;4995055;28;20048;-63
2021/11/08 03:32:58;;;;;;;5.30;2.53;;;;;;;7.42;74.49;99739.78;4994651;28;20057;-63
2021/11/08 03:35:31;;;;;;;5.22;2.65;;;;;;;7.24;74.65;99729.41;4977548;28;20060;-65
2021/11/08 03:38:08;;;;;;;5.72;2.90;;;;;;;7.23;74.62;99737.84;4993966;28;20100;-63
2021/11/08 03:40:40;;;;;;;5.32;3.33;;;;;;;7.17;74.66;99737.75;4994542;28;20104;-65
2021/11/08 03:43:11;;;;;;;8.07;3.50;;;;;;;7.08;75.01;99737.66;4994472;28;20543;-64
2021/11/08 03:45:41;;;;;;;7.03;3.38;;;;;;;7.12;75.08;99734.31;4994434;28;20536;-63
2021/11/08 03:48:12;;;;;;;4.63;2.88;;;;;;;7.20;75.49;99737.78;4994652;28;20042;-63
2021/11/08 03:50:41;;;;;;;6.93;3.60;;;;;;;7.19;74.64;99731.03;4994727;28;20105;-65
2021/11/08 03:53:12;;;;;;;7.15;3.10;;;;;;;7.19;74.56;99746.25;4994602;28;20092;-65
2021/11/08 03:55:46;;;;;;;6.80;3.10;;;;;;;7.20;74.70;99745.41;4994653;28;20415;-64
2021/11/08 03:58:16;;;;;;;6.55;3.35;;;;;;;7.18;74.65;99734.38;4994176;28;20069;-64
2021/11/08 04:00:49;;;;;;;5.07;3.05;;;;;;;7.25;74.99;99731.09;4994334;28;20054;-63
2021/11/08 04:03:19;;;;;;;6.15;3.20;;;;;;;7.17;74.50;99727.63;4994500;28;20050;-65
2021/11/08 04:05:49;;;;;;;6.10;3.47;;;;;;;7.02;74.42;99727.41;4994178;28;20045;-65
2021/11/08 04:08:21;;;;;;;6.50;3.10;;;;;;;7.00;74.68;99726.53;4994109;28;20137;-63
2021/11/08 04:10:54;;;;;;;5.28;3.00;;;;;;;6.97;74.58;99742.56;4994186;28;20070;-63
2021/11/08 04:14:04;;;;;;;6.38;3.20;;;;;;;6.93;74.99;99739.97;5166865;23;20041;-64
2021/11/08 04:16:34;;;;;;;;;;;;;;;6.86;74.88;99725.47;4914778;29;20584;-63
2021/11/08 04:19:08;;;;;;;6.03;2.60;;;;;;;6.83;74.94;99728.81;4917266;29;20420;-63
2021/11/08 04:21:39;;;;;;;6.13;2.97;;;;;;;6.85;75.02;99728.84;4917280;29;20052;-63
2021/11/08 04:24:11;;;;;;;7.45;2.95;;;;;;;6.57;75.42;99682.78;4916574;29;20169;-63
2021/11/08 04:26:43;;;;;;;6.00;3.03;;;;;;;6.82;75.25;99731.31;4917187;29;20076;-63
2021/11/08 04:29:18;;;;;;;5.45;3.03;;;;;;;6.74;75.51;99721.91;4916841;29;20558;-63
2021/11/08 04:31:48;;;;;;;4.70;2.55;;;;;;;6.85;75.16;99744.91;4917134;29;20075;-63
2021/11/08 04:34:21;;;;;;;4.72;2.67;;;;;;;6.89;75.63;99745.78;4917134;29;20048;-63
2021/11/08 04:39:54;;;;;;;5.70;2.85;;;;;;;6.71;75.72;99751.47;4917465;29;20092;-63
2021/11/08 04:42:31;;;;;;;6.88;3.78;;;;;;;6.78;75.92;99754.94;4917251;29;20048;-63
2021/11/08 04:50:36;;;;;;;4.90;2.85;;;;;;;6.78;75.90;99757.47;4903148;29;20052;-63
2021/11/08 04:53:21;;;;;;;7.15;3.42;;;;;;;6.75;76.29;99758.28;4919696;29;20076;-63
2021/11/08 05:22:59;;;;;;;9.55;5.10;;;;;;;6.77;76.40;99807.34;4958504;29;20055;-62
2021/11/08 05:28:31;;;;;;;9.02;5.03;;;;;;;6.92;76.25;99796.59;4958481;29;20085;-63
2021/11/08 05:31:01;;;;;;;8.77;4.35;;;;;;;6.89;76.12;99806.66;4958404;29;20047;-64
2021/11/08 05:33:34;;;;;;;9.60;4.65;;;;;;;6.89;76.50;99817.69;4958065;29;20051;-64
2021/11/08 05:36:04;;;;;;;9.65;5.25;;;;;;;6.90;75.56;99818.53;4958033;29;20054;-63
2021/11/08 05:38:35;;;;;;;;;;;;;;;6.63;76.15;99816.41;4958695;29;20134;-64
2021/11/08 05:41:08;;;;;;;11.95;5.10;;;;;;;6.67;75.85;99820.72;4958197;29;19926;-64
2021/11/08 05:43:39;;;;;;;10.02;4.65;;;;;;;6.68;76.04;99825.81;4957785;29;20051;-63
2021/11/08 05:46:15;;;;;;;12.05;5.70;;;;;;;6.74;76.23;99833.50;4957859;29;20047;-63
2021/11/08 05:48:48;;;;;;;9.18;5.28;;;;;;;6.79;75.81;99845.44;4957782;29;20051;-63
2021/11/08 05:51:20;;;;;;;10.20;5.43;;;;;;;6.72;75.83;99839.38;4957662;29;20055;-64
2021/11/08 05:53:53;;;;;;;28.23;16.40;;;;;;;6.69;75.90;99847.78;4957710;29;20560;-65
2021/11/08 05:56:29;;;;;;;22.13;12.38;;;;;;;6.78;76.26;99853.84;4958033;29;20067;-64
2021/11/08 06:50:07;;;;;;;10.00;4.45;;;;;;;6.64;78.30;99978.75;4956568;29;20051;-63
2021/11/08 06:52:39;;;;;;;9.40;4.75;;;;;;;6.84;78.30;99985.88;4956763;29;20047;-64
2021/11/08 06:55:09;;;;;;;8.25;4.78;;;;;;;7.02;79.09;99996.34;4957092;29;20055;-63
2021/11/08 06:57:45;;;;;;;7.90;4.15;;;;;;;7.04;78.37;99989.63;4956697;29;20043;-64
2021/11/08 07:00:16;;;;;;;8.15;4.45;;;;;;;7.16;78.32;99994.91;4956390;29;20119;-64
2021/11/08 07:02:50;;;;;;;7.25;3.78;;;;;;;7.27;78.07;99993.44;4956407;29;20055;-64
2021/11/08 07:05:20;;;;;;;10.52;4.10;;;;;;;7.48;77.60;99998.03;4956292;29;20049;-65
2021/11/08 07:07:54;;;;;;;8.60;4.75;;;;;;;7.47;77.96;99996.28;4956422;29;20051;-63
2021/11/08 07:10:26;;;;;;;8.00;4.80;;;;;;;7.47;77.39;100007.31;4956501;29;20047;-64
2021/11/08 07:12:56;;;;;;;8.18;4.43;;;;;;;7.51;77.32;100014.16;4955383;28;20079;-64
2021/11/08 07:15:26;;;;;;;10.27;5.20;;;;;;;7.49;77.96;100014.94;4955432;29;20057;-65
2021/11/08 07:17:57;;;;;;;8.68;4.90;;;;;;;7.47;77.45;100012.41;4956058;29;20051;-64
2021/11/08 07:20:29;;;;;;;9.90;5.53;;;;;;;7.47;77.56;100020.00;4956058;29;20142;-65
2021/11/08 07:22:58;;;;;;;9.90;4.82;;;;;;;7.38;77.73;100023.25;4955942;29;20082;-65
2021/11/08 07:25:27;;;;;;;9.30;4.78;;;;;;;7.40;77.85;100030.91;4955970;29;20142;-68
2021/11/08 07:27:57;;;;;;;14.70;5.40;;;;;;;7.40;77.50;100031.75;4956069;29;20043;-65
2021/11/08 07:30:27;;;;;;;8.02;4.43;;;;;;;7.48;78.00;100028.50;4956158;29;20058;-64
2021/11/08 07:32:58;;;;;;;9.43;4.82;;;;;;;7.63;77.43;100034.66;4955872;29;20051;-65
2021/11/08 07:35:27;;;;;;;9.02;4.72;;;;;;;7.75;77.43;100029.78;4955800;29;20106;-65
2021/11/08 07:38:02;;;;;;;8.38;4.80;;;;;;;7.89;77.86;100038.47;4955891;29;20475;-63
2021/11/08 07:40:31;;;;;;;9.23;4.80;;;;;;;7.91;77.47;100046.16;4956066;29;20046;-64
2021/11/08 07:43:01;;;;;;;8.50;4.70;;;;;;;7.86;77.54;100043.53;4955592;29;20126;-64
2021/11/08 07:45:30;;;;;;;9.15;5.25;;;;;;;7.88;77.83;100048.63;4955473;29;20516;-64
2021/11/08 07:48:06;;;;;;;8.35;4.32;;;;;;;8.09;77.09;100056.59;4955531;29;20047;-64
2021/11/08 07:50:40;;;;;;;8.70;4.20;;;;;;;8.09;77.10;100054.03;4955949;29;20392;-64
2021/11/08 07:53:12;;;;;;;8.50;4.80;;;;;;;8.02;77.10;100048.00;4955839;29;20047;-64
2021/11/08 07:55:48;;;;;;;8.07;4.28;;;;;;;8.14;76.54;100044.81;4955566;29;20082;-63
2021/11/08 07:58:18;;;;;;;9.82;4.05;;;;;;;8.30;76.39;100058.63;4955499;29;20150;-63
2021/11/08 08:00:50;;;;;;;9.10;4.70;;;;;;;8.31;77.00;100053.56;4955490;29;20078;-64
2021/11/08 08:03:26;;;;;;;8.35;4.43;;;;;;;8.21;76.37;100058.44;4955826;29;20497;-63
2021/11/08 08:05:57;;;;;;;8.45;5.03;;;;;;;8.17;77.18;100069.41;4955372;29;20047;-63
2021/11/08 08:08:30;;;;;;;9.10;4.60;;;;;;;8.24;77.29;100067.00;4956012;29;20141;-63
2021/11/08 08:11:00;;;;;;;8.98;4.70;;;;;;;8.38;76.75;100069.75;4955347;29;20047;-64
2021/11/08 08:13:34;;;;;;;11.02;5.45;;;;;;;8.31;76.85;100062.88;4955497;29;20102;-64
2021/11/08 08:16:07;;;;;;;12.05;6.22;;;;;;;8.42;76.22;100068.97;4954690;29;20059;-63
2021/11/08 08:18:43;;;;;;;9.98;5.20;;;;;;;8.42;76.61;100071.53;4955449;29;20047;-64
2021/11/08 08:21:16;;;;;;;8.13;4.57;;;;;;;8.35;76.55;100069.72;4955301;29;20047;-63
2021/11/08 08:23:55;;;;;;;10.55;5.32;;;;;;;8.40;76.37;100078.25;4956864;28;20497;-63
2021/11/08 08:26:30;;;;;;;9.10;4.57;;;;;;;8.55;75.94;100073.38;4959245;29;20043;-64
2021/11/08 08:29:03;;;;;;;8.68;4.22;;;;;;;8.65;75.68;100085.41;4959193;29;20043;-64
2021/11/08 08:31:33;;;;;;;7.88;4.28;;;;;;;8.74;75.89;100085.53;4959077;29;20051;-63
2021/11/08 08:34:05;;;;;;;7.05;3.97;;;;;;;8.84;75.15;100097.53;4959328;29;20078;-64
2021/11/08 08:36:35;;;;;;;6.80;3.90;;;;;;;8.90;75.20;100092.50;4959068;29;20051;-63
2021/11/08 08:39:09;;;;;;;8.38;4.07;;;;;;;9.00;74.68;100088.41;4958972;29;20050;-65
2021/11/08 08:41:39;;;;;;;6.63;3.75;;;;;;;9.09;74.58;100101.25;4959233;29;20412;-64
2021/11/08 08:44:13;;;;;;;6.32;3.72;;;;;;;9.09;75.14;100098.69;4958867;29;20058;-64
2021/11/08 08:46:43;;;;;;;6.57;3.50;;;;;;;9.15;74.44;100099.63;4959210;29;20129;-65
2021/11/08 08:49:22;;;;;;;7.53;3.10;;;;;;;9.16;74.00;100111.53;4958791;29;20093;-64
2021/11/08 08:51:52;;;;;;;6.90;3.58;;;;;;;9.36;74.20;100110.03;4959266;29;20051;-65
2021/11/08 08:54:22;;;;;;;6.45;3.33;;;;;;;9.47;73.36;100102.53;4959289;29;20204;-64
2021/11/08 08:56:55;;;;;;;5.97;3.45;;;;;;;9.65;73.52;100102.69;4958541;29;20126;-64
2021/11/08 08:59:24;;;;;;;6.93;3.15;;;;;;;9.78;72.78;100098.56;4958685;29;20146;-64
2021/11/08 09:01:54;;;;;;;6.90;3.58;;;;;;;9.97;72.43;100110.63;4958388;29;20098;-65
2021/11/08 09:04:27;;;;;;;6.97;3.50;;;;;;;10.25;72.12;100102.38;4958494;29;20051;-65
2021/11/08 09:06:57;;;;;;;5.63;3.13;;;;;;;10.48;70.82;100105.13;4941104;29;20043;-64
2021/11/08 09:09:26;;;;;;;5.68;2.90;;;;;;;10.52;70.25;100107.69;4958891;29;20067;-64
2021/11/08 09:11:55;;;;;;;6.70;2.95;;;;;;;10.65;69.77;100104.34;4958489;29;20074;-64
2021/11/08 09:14:28;;;;;;;6.47;3.10;;;;;;;10.73;69.23;100112.91;4958449;29;20063;-65
2021/11/08 09:16:58;;;;;;;6.30;3.20;;;;;;;10.99;68.19;100117.31;4958586;29;20074;-65
2021/11/08 09:19:29;;;;;;;5.60;3.30;;;;;;;11.18;67.67;100109.72;4958286;29;20386;-65
2021/11/08 09:21:59;;;;;;;5.55;2.97;;;;;;;11.27;67.21;100101.25;4958254;29;20055;-65
2021/11/08 09:24:36;;;;;;;5.90;2.78;;;;;;;11.47;66.35;100112.34;4958391;29;20409;-65
2021/11/08 09:27:06;;;;;;;5.88;2.90;;;;;;;11.70;65.29;100108.19;4958153;29;20053;-65
2021/11/08 09:29:35;;;;;;;4.93;2.78;;;;;;;11.84;64.63;100115.88;4958049;29;20161;-66
2021/11/08 09:32:09;;;;;;;5.30;2.58;;;;;;;11.91;64.11;100108.22;4958086;29;20113;-65
2021/11/08 09:34:46;;;;;;;4.22;2.30;;;;;;;11.95;63.72;100107.34;4957439;28;20057;-65
2021/11/08 09:37:42;;;;;;;4.35;2.22;;;;;;;12.04;63.04;100094.56;4957909;29;20051;-65
2021/11/08 09:40:14;;;;;;;4.45;2.30;;;;;;;12.20;62.82;100092.00;4898670;29;20045;-65
2021/11/08 09:42:44;;;;;;;4.35;2.35;;;;;;;12.37;62.02;100086.00;4899094;29;20081;-65
2021/11/08 09:45:13;;;;;;;;;;;;;;;12.15;61.17;100096.25;4899203;29;20143;-64
2021/11/08 09:47:47;;;;;;;5.80;2.30;;;;;;;11.85;61.88;100103.06;4898705;29;20541;-65
2021/11/08 09:50:22;;;;;;;4.30;2.40;;;;;;;11.82;62.34;100105.66;4899038;29;20069;-65
2021/11/08 09:52:55;;;;;;;4.93;2.70;;;;;;;11.76;62.39;100105.63;4898658;29;20116;-65
2021/11/08 09:55:25;;;;;;;4.72;2.67;;;;;;;11.73;62.40;100105.66;4898682;29;20380;-64
2021/11/08 09:57:57;;;;;;;4.55;2.25;;;;;;;11.63;62.14;100096.22;4919472;29;20062;-64
2021/11/08 10:00:29;;;;;;;4.95;2.28;;;;;;;11.76;62.21;100091.97;4957585;29;20138;-64
2021/11/08 10:03:01;;;;;;;4.85;2.50;;;;;;;11.82;61.81;100097.97;4957463;29;20138;-64
2021/11/08 10:05:41;;;;;;;5.68;2.80;;;;;;;11.88;61.88;100092.84;4957676;29;20404;-64
2021/11/08 10:08:22;;;;;;;4.23;1.90;;;;;;;11.88;61.53;100097.09;4957274;29;20135;-64
2021/11/08 10:10:53;;;;;;;4.05;2.03;;;;;;;11.92;61.22;100097.13;4957470;29;20293;-64
2021/11/08 10:13:26;;;;;;;4.18;2.25;;;;;;;11.89;61.16;100093.72;4957265;29;20377;-64
2021/11/08 10:15:59;;;;;;;6.97;2.25;;;;;;;11.69;60.69;100091.13;4956639;29;20118;-66
2021/11/08 10:18:30;;;;;;;6.75;2.00;;;;;;;11.28;60.32;100097.81;4956963;29;20040;-63
2021/11/08 10:21:09;;;;;;;4.50;1.90;;;;;;;11.12;59.81;100102.03;4956753;29;20126;-64
2021/11/08 10:23:40;;;;;;;3.85;1.80;;;;;;;11.02;59.93;100099.44;4957345;29;20048;-64
2021/11/08 10:26:12;;;;;;;5.60;2.25;;;;;;;11.02;59.47;100094.31;4956757;29;20134;-64
2021/11/08 10:28:42;;;;;;;6.55;2.60;;;;;;;10.96;59.84;100073.88;4957059;29;20043;-64
2021/11/08 10:31:17;;;;;;;4.18;1.98;;;;;;;11.15;59.84;100086.72;4956846;29;20425;-64
2021/11/08 10:33:52;;;;;;;4.30;2.13;;;;;;;11.03;59.94;100090.94;4956953;29;20040;-64
2021/11/08 10:36:27;;;;;;;6.28;2.60;;;;;;;10.94;60.02;100096.00;4957195;29;20047;-64
2021/11/08 10:39:01;;;;;;;3.22;1.83;;;;;;;10.87;60.27;100097.66;4956595;29;20057;-64
2021/11/08 10:41:36;;;;;;;4.28;2.20;;;;;;;10.90;59.97;100099.38;4957076;29;20067;-64
2021/11/08 10:44:12;;;;;;;3.08;1.88;;;;;;;10.78;59.34;100090.81;4956758;29;20051;-64
2021/11/08 10:46:49;;;;;;;5.28;2.33;;;;;;;10.80;59.71;100092.53;4956861;28;20051;-64
2021/11/08 10:49:25;;;;;;;4.15;1.90;;;;;;;10.75;59.17;100090.78;4956933;29;20493;-64
2021/11/08 10:52:01;;;;;;;3.90;1.90;;;;;;;10.77;58.95;100083.16;4956462;29;20057;-64
2021/11/08 10:54:33;;;;;;;6.15;1.80;;;;;;;10.38;59.22;100012.34;4956550;29;20073;-64
2021/11/08 10:57:07;;;;;;;6.60;2.10;;;;;;;10.83;58.62;100090.84;4940071;29;20094;-64
2021/11/08 10:59:46;;;;;;;7.75;2.22;;;;;;;10.72;58.51;100089.94;4956938;29;20430;-64
2021/11/08 11:02:18;;;;;;;4.35;1.80;;;;;;;10.37;58.94;100036.13;4939480;29;20118;-63
2021/11/08 11:04:55;;;;;;;4.68;1.70;;;;;;;10.63;59.22;100100.94;4956480;29;20135;-64
2021/11/08 11:07:32;;;;;;;4.75;2.05;;;;;;;10.64;59.75;100091.59;4956193;29;20055;-64
2021/11/08 11:10:07;;;;;;;7.13;2.10;;;;;;;10.83;59.57;100097.63;4956371;29;20055;-64
2021/11/08 11:12:37;;;;;;;5.43;2.75;;;;;;;10.82;60.56;100101.06;4956266;29;20147;-64
2021/11/08 11:15:09;;;;;;;5.13;2.30;;;;;;;10.96;60.06;100095.16;4955807;29;20520;-64
2021/11/08 11:17:45;;;;;;;5.78;2.72;;;;;;;11.08;60.08;100099.47;4939143;29;20476;-65
2021/11/08 11:20:17;;;;;;;4.35;1.98;;;;;;;11.16;59.66;100090.09;4955985;29;20070;-64
2021/11/08 11:23:01;;;;;;;4.25;2.33;;;;;;;11.50;58.84;100089.38;4955856;29;20043;-64
2021/11/08 11:25:32;;;;;;;5.47;2.35;;;;;;;11.71;58.36;100091.97;4955767;29;20178;-64
2021/11/08 11:28:02;;;;;;;5.38;2.30;;;;;;;11.90;58.35;100085.19;4955815;29;20047;-64
2021/11/08 11:30:35;;;;;;;5.60;2.40;;;;;;;12.17;58.06;100089.44;4939029;29;20058;-65
2021/11/08 11:33:14;;;;;;;9.98;2.17;;;;;;;11.89;57.53;100084.34;4955945;29;20051;-64
2021/11/08 11:35:52;;;;;;;6.70;2.40;;;;;;;11.75;57.65;100090.28;4956223;29;20047;-64
2021/11/08 11:38:30;;;;;;;4.30;2.05;;;;;;;11.71;57.77;100089.41;4956678;29;20497;-64
2021/11/08 11:41:07;;;;;;;6.60;2.28;;;;;;;11.43;58.31;100082.53;4955858;29;20069;-64
2021/11/08 11:43:39;;;;;;;5.68;2.30;;;;;;;11.41;58.28;100085.09;4956021;29;20141;-64
2021/11/08 11:46:17;;;;;;;5.10;2.38;;;;;;;11.36;58.57;100091.03;4955926;29;20374;-64
2021/11/08 11:48:51;;;;;;;3.80;1.80;;;;;;;11.36;58.38;100081.69;4938835;29;20083;-64
2021/11/08 11:51:25;;;;;;;3.40;1.83;;;;;;;11.34;58.74;100078.28;4955877;29;20496;-64
2021/11/08 11:53:57;;;;;;;5.55;1.77;;;;;;;11.43;57.80;100082.53;4955355;29;20047;-64
2021/11/08 11:56:31;;;;;;;3.63;1.50;;;;;;;11.42;57.62;100075.72;4955594;29;20039;-64
2021/11/08 11:59:05;;;;;;;4.95;1.70;;;;;;;11.44;56.57;100074.03;4955386;28;20126;-64
2021/11/08 12:01:37;;;;;;;4.32;1.85;;;;;;;11.42;56.01;100068.88;4955752;29;20047;-64
2021/11/08 12:04:25;;;;;;;3.15;1.83;;;;;;;11.55;55.96;100067.22;4955256;29;20055;-64
2021/11/08 12:06:59;;;;;;;3.47;1.55;;;;;;;12.00;55.81;100057.03;4955294;29;20049;-64
2021/11/08 12:09:34;;;;;;;5.38;1.50;;;;;;;12.29;54.96;100071.50;4955488;29;20497;-65
2021/11/08 12:12:08;;;;;;;3.30;1.50;;;;;;;12.41;54.63;100063.81;4955393;29;20055;-64
2021/11/08 12:14:38;;;;;;;3.85;1.45;;;;;;;12.61;54.23;100067.19;4955617;29;20548;-64
2021/11/08 12:17:15;;;;;;;3.65;1.40;;;;;;;12.47;53.65;100063.81;4955340;29;20043;-64
2021/11/08 12:19:46;;;;;;;4.60;1.40;;;;;;;12.47;52.90;100069.78;4955391;29;20608;-64
2021/11/08 12:22:21;;;;;;;5.40;1.90;;;;;;;12.65;53.54;100063.75;4955568;29;20047;-63
2021/11/08 12:25:00;;;;;;;4.53;1.80;;;;;;;12.66;52.98;100055.22;4955619;29;20508;-64
2021/11/08 12:27:39;;;;;;;4.28;1.48;;;;;;;12.69;52.40;100060.34;4955234;29;20051;-64
2021/11/08 12:30:11;;;;;;;3.75;2.08;;;;;;;12.71;52.14;100058.63;4955626;29;20090;-64
2021/11/08 12:32:46;;;;;;;5.15;1.83;;;;;;;12.61;52.26;100057.81;4955274;29;20594;-64
2021/11/08 12:35:22;;;;;;;2.20;1.20;;;;;;;12.40;52.23;100055.31;4955477;29;20035;-64
2021/11/08 12:37:54;;;;;;;3.65;1.50;;;;;;;12.21;52.72;100065.56;4955563;29;20057;-64
2021/11/08 12:40:30;;;;;;;4.35;1.50;;;;;;;12.18;53.06;100052.78;4955642;29;20066;-64
2021/11/08 12:43:00;;;;;;;3.58;1.45;;;;;;;11.98;53.00;100053.63;4954951;29;20374;-64
2021/11/08 12:45:40;;;;;;;3.20;1.45;;;;;;;12.01;53.60;100052.78;4954974;29;20138;-65
2021/11/08 12:48:13;;;;;;;5.03;2.08;;;;;;;11.93;53.57;100049.38;4954830;29;20078;-64
2021/11/08 12:50:46;;;;;;;2.65;1.30;;;;;;;11.99;53.89;100052.78;4955252;29;20059;-64
2021/11/08 12:53:24;;;;;;;4.88;1.73;;;;;;;11.96;53.71;100050.22;4954853;29;20055;-64
2021/11/08 12:55:57;;;;;;;3.20;1.80;;;;;;;11.92;53.93;100048.53;4954962;29;20049;-64
2021/11/08 12:58:39;;;;;;;3.60;1.58;;;;;;;11.88;54.25;100041.69;4954856;29;20138;-64
2021/11/08 13:01:14;;;;;;;3.75;1.63;;;;;;;11.84;54.64;100046.81;4954864;29;20075;-65
2021/11/08 13:03:53;;;;;;;4.35;1.45;;;;;;;11.82;54.35;100051.09;4954942;29;20404;-65
2021/11/08 13:06:27;;;;;;;3.28;1.55;;;;;;;11.74;54.05;100048.53;4954895;29;20457;-64
2021/11/08 13:09:08;;;;;;;4.30;1.70;;;;;;;11.71;54.59;100045.94;4954998;29;20401;-64
2021/11/08 13:11:42;;;;;;;3.35;1.40;;;;;;;11.62;54.55;100048.47;4957368;29;20130;-65
2021/11/08 13:14:27;;;;;;;8.60;3.90;;;;;;;11.58;54.36;100046.78;4958676;29;20138;-63
2021/11/08 13:17:08;;;;;;;2.83;1.48;;;;;;;11.54;54.33;100050.16;4958547;29;20147;-64
2021/11/08 13:19:47;;;;;;;4.20;1.42;;;;;;;11.50;53.81;100052.72;4958323;29;20130;-64
2021/11/08 13:22:35;;;;;;;3.33;1.50;;;;;;;11.60;53.78;100055.31;4958230;29;20107;-64
2021/11/08 13:25:10;;;;;;;3.30;1.30;;;;;;;11.63;54.01;100045.09;4958583;29;20043;-64
2021/11/08 13:28:03;;;;;;;2.40;1.08;;;;;;;11.68;53.80;100037.44;4958277;29;20050;-64
2021/11/08 13:30:36;;;;;;;2.30;1.10;;;;;;;11.64;53.63;100039.09;4958419;29;20497;-65
2021/11/08 13:33:10;;;;;;;2.45;1.13;;;;;;;11.54;53.40;100036.56;4958086;29;20563;-64